Time;durP1;ratioP1;P1;durP2;ratioP2;P2;SDS_P1;SDS_P2;PMS_P1;PMS_P2;Temp;Humidity;BMP_temperature;BMP_pressure;BME280_temperature;BME280_humidity;BME280_pressure;Samples;Min_cycle;Max_cycle;Signal;HPM_P1;HPM_P2
2022/01/27 00:00:38;;;;;;;33.55;17.42;;;;;;;;;;8223625;28;20037;-61
2022/01/27 00:04:26;;;;;;;35.30;17.13;;;;;;;;;;8223476;28;20034;-61
2022/01/27 00:08:37;;;;;;;37.03;17.75;;;;;;;;;;8224634;28;20493;-61
2022/01/27 00:12:39;;;;;;;39.28;17.73;;;;;;;;;;8223719;28;20045;-61
2022/01/27 00:16:43;;;;;;;43.15;19.88;;;;;;;;;;8222676;28;20038;-61
2022/01/27 00:20:47;;;;;;;40.60;18.80;;;;;;;;;;8222397;28;20690;-61
2022/01/27 00:24:47;;;;;;;42.45;19.40;;;;;;;;;;8223920;28;20121;-61
2022/01/27 00:28:48;;;;;;;38.78;17.70;;;;;;;;;;8220456;28;20108;-61
2022/01/27 00:32:48;;;;;;;49.22;20.50;;;;;;;;;;8223411;28;20052;-61
2022/01/27 00:36:48;;;;;;;34.72;16.90;;;;;;;;;;8222222;28;20030;-61
2022/01/27 00:40:48;;;;;;;39.72;18.33;;;;;;;;;;8221826;28;20036;-61
2022/01/27 00:44:49;;;;;;;44.97;18.70;;;;;;;;;;8221493;28;20701;-61
2022/01/27 00:48:50;;;;;;;42.63;18.38;;;;;;;;;;8221932;28;20038;-62
2022/01/27 00:52:54;;;;;;;45.90;21.08;;;;;;;;;;8220782;28;20285;-61
2022/01/27 00:57:07;;;;;;;32.70;17.48;;;;;;;;;;8225547;28;20104;-61
2022/01/27 01:01:11;;;;;;;42.75;18.90;;;;;;;;;;8221418;28;20049;-61
2022/01/27 01:18:30;;;;;;;34.30;17.17;;;;;;;;;;8218883;28;20039;-61
2022/01/27 01:30:57;;;;;;;35.55;16.90;;;;;;;;;;8219305;28;20553;-61
2022/01/27 01:34:59;;;;;;;40.22;19.05;;;;;;;;;;8221068;28;20018;-61
2022/01/27 01:38:59;;;;;;;38.92;18.42;;;;;;;;;;8219200;28;20077;-61
2022/01/27 01:42:59;;;;;;;52.22;22.42;;;;;;;;;;8219576;28;20037;-61
2022/01/27 01:47:00;;;;;;;47.08;19.92;;;;;;;;;;8220469;28;20065;-61
2022/01/27 01:51:01;;;;;;;47.53;19.73;;;;;;;;;;8219667;28;20030;-61
2022/01/27 01:55:03;;;;;;;48.90;21.13;;;;;;;;;;8219609;28;20026;-61
2022/01/27 01:59:05;;;;;;;40.90;19.13;;;;;;;;;;8219360;28;20501;-61
2022/01/27 02:03:05;;;;;;;40.83;18.90;;;;;;;;;;8221177;28;20056;-61
2022/01/27 02:07:14;;;;;;;37.72;17.55;;;;;;;;;;8217124;28;20095;-61
2022/01/27 02:19:53;;;;;;;40.45;19.25;;;;;;;;;;8220099;28;20038;-61
2022/01/27 02:23:53;;;;;;;36.38;17.02;;;;;;;;;;8220999;28;20030;-61
2022/01/27 02:27:57;;;;;;;35.23;17.23;;;;;;;;;;8218741;28;20045;-61
2022/01/27 02:31:58;;;;;;;34.30;16.40;;;;;;;;;;8218165;28;20300;-61
2022/01/27 02:35:58;;;;;;;32.08;15.68;;;;;;;;;;8220494;28;20034;-61
2022/01/27 02:39:58;;;;;;;42.42;18.20;;;;;;;;;;8217738;28;20112;-61
2022/01/27 02:43:58;;;;;;;44.15;17.92;;;;;;;;;;8218800;28;20054;-61
2022/01/27 02:47:58;;;;;;;30.70;15.57;;;;;;;;;;8217028;28;20050;-61
2022/01/27 02:51:58;;;;;;;37.00;15.95;;;;;;;;;;8217664;28;20947;-61
2022/01/27 02:55:59;;;;;;;31.13;15.25;;;;;;;;;;8226014;28;20123;-61
2022/01/27 02:59:59;;;;;;;29.03;14.63;;;;;;;;;;8224119;28;20014;-61
2022/01/27 03:03:59;;;;;;;41.28;16.83;;;;;;;;;;8223123;28;20328;-61
2022/01/27 03:08:00;;;;;;;33.30;15.13;;;;;;;;;;8224551;28;20957;-61
2022/01/27 03:12:07;;;;;;;39.55;16.73;;;;;;;;;;8223875;28;20751;-62
2022/01/27 03:16:08;;;;;;;32.33;14.40;;;;;;;;;;8225452;28;20080;-61
2022/01/27 03:20:09;;;;;;;32.63;15.57;;;;;;;;;;8223367;28;20050;-61
2022/01/27 03:24:10;;;;;;;34.50;14.55;;;;;;;;;;8225088;28;20120;-61
2022/01/27 03:28:11;;;;;;;30.83;14.10;;;;;;;;;;8224852;28;20096;-61
2022/01/27 03:32:11;;;;;;;29.50;14.48;;;;;;;;;;8223347;28;20038;-61
2022/01/27 03:36:12;;;;;;;28.83;14.32;;;;;;;;;;8222670;28;20066;-61
2022/01/27 03:40:12;;;;;;;34.17;15.13;;;;;;;;;;8222411;28;20117;-61
2022/01/27 03:44:12;;;;;;;32.38;13.77;;;;;;;;;;8223133;28;20030;-61
2022/01/27 03:48:12;;;;;;;33.50;14.23;;;;;;;;;;8222814;28;21062;-61
2022/01/27 03:52:13;;;;;;;26.38;12.30;;;;;;;;;;8224160;28;20039;-61
2022/01/27 03:56:13;;;;;;;26.65;12.60;;;;;;;;;;8223392;28;20018;-61
2022/01/27 04:00:14;;;;;;;31.08;12.52;;;;;;;;;;8222237;28;20037;-61
2022/01/27 04:04:14;;;;;;;24.15;11.65;;;;;;;;;;8222454;28;20029;-61
2022/01/27 04:08:15;;;;;;;23.05;12.05;;;;;;;;;;8224111;28;20058;-61
2022/01/27 04:12:16;;;;;;;26.33;12.15;;;;;;;;;;8222101;28;20030;-61
2022/01/27 04:16:16;;;;;;;26.75;11.55;;;;;;;;;;8222870;28;20117;-61
2022/01/27 04:20:17;;;;;;;24.17;11.57;;;;;;;;;;8222830;28;20065;-61
2022/01/27 04:24:17;;;;;;;25.40;12.07;;;;;;;;;;8223116;28;20088;-61
2022/01/27 04:28:37;;;;;;;24.58;11.68;;;;;;;;;;8220652;28;20375;-61
2022/01/27 04:32:44;;;;;;;22.00;11.65;;;;;;;;;;8237229;28;20039;-61
2022/01/27 04:36:45;;;;;;;24.52;12.27;;;;;;;;;;8222522;28;20037;-62
2022/01/27 04:44:59;;;;;;;24.83;11.80;;;;;;;;;;8221609;28;20483;-61
2022/01/27 04:49:02;;;;;;;29.25;11.98;;;;;;;;;;8221725;28;20031;-61
2022/01/27 04:53:05;;;;;;;22.65;11.27;;;;;;;;;;8220141;28;20112;-61
2022/01/27 04:57:07;;;;;;;24.80;11.93;;;;;;;;;;8222647;28;20057;-61
2022/01/27 05:01:07;;;;;;;28.33;13.13;;;;;;;;;;8218694;28;20096;-61
2022/01/27 05:05:07;;;;;;;24.23;11.57;;;;;;;;;;8236120;28;20117;-61
2022/01/27 05:09:07;;;;;;;29.23;12.85;;;;;;;;;;8218292;28;20030;-61
2022/01/27 05:13:13;;;;;;;24.83;10.93;;;;;;;;;;8220666;28;20097;-62
2022/01/27 05:17:13;;;;;;;23.05;10.77;;;;;;;;;;8219889;28;20281;-61
2022/01/27 05:21:13;;;;;;;23.20;10.70;;;;;;;;;;8219104;28;20018;-61
2022/01/27 05:25:13;;;;;;;23.20;11.73;;;;;;;;;;8220747;28;20026;-62
2022/01/27 05:29:14;;;;;;;30.98;12.73;;;;;;;;;;8220134;28;20014;-61
2022/01/27 05:33:14;;;;;;;23.85;11.07;;;;;;;;;;8218517;28;20415;-61
2022/01/27 05:37:14;;;;;;;27.10;11.55;;;;;;;;;;8218986;28;20018;-61
2022/01/27 05:41:14;;;;;;;28.20;12.00;;;;;;;;;;8219741;28;20026;-61
2022/01/27 05:45:15;;;;;;;29.30;12.20;;;;;;;;;;8217916;28;20022;-62
2022/01/27 05:49:15;;;;;;;27.85;12.00;;;;;;;;;;8220258;28;20057;-61
2022/01/27 05:53:15;;;;;;;17.65;9.43;;;;;;;;;;8219388;28;20026;-61
2022/01/27 05:57:15;;;;;;;20.58;10.35;;;;;;;;;;8219043;28;20026;-61
2022/01/27 06:01:16;;;;;;;22.55;11.27;;;;;;;;;;8219140;28;20848;-61
2022/01/27 06:05:16;;;;;;;23.65;10.25;;;;;;;;;;8217294;28;20273;-62
2022/01/27 06:09:16;;;;;;;24.20;10.73;;;;;;;;;;8218971;28;20513;-62
2022/01/27 06:13:17;;;;;;;25.95;11.20;;;;;;;;;;8218407;28;20639;-61
2022/01/27 06:17:17;;;;;;;21.40;10.43;;;;;;;;;;8217213;28;20368;-61
2022/01/27 06:21:17;;;;;;;25.60;10.93;;;;;;;;;;8217229;28;20030;-61
2022/01/27 06:25:17;;;;;;;22.85;10.90;;;;;;;;;;8219344;28;20574;-61
2022/01/27 06:29:18;;;;;;;21.03;9.60;;;;;;;;;;8216920;28;20759;-61
2022/01/27 06:33:18;;;;;;;22.73;10.87;;;;;;;;;;8219022;28;20298;-61
2022/01/27 06:37:18;;;;;;;21.40;9.80;;;;;;;;;;8220033;28;20283;-60
2022/01/27 06:41:19;;;;;;;21.10;10.27;;;;;;;;;;8216546;28;20817;-60
2022/01/27 06:45:19;;;;;;;22.60;9.68;;;;;;;;;;8216776;28;20285;-60
2022/01/27 06:49:19;;;;;;;20.33;9.90;;;;;;;;;;8216278;28;20033;-60
2022/01/27 06:53:20;;;;;;;21.70;11.02;;;;;;;;;;8217504;28;20073;-61
2022/01/27 06:57:20;;;;;;;33.45;14.52;;;;;;;;;;8218173;28;20641;-60
2022/01/27 07:01:20;;;;;;;28.48;13.38;;;;;;;;;;8216329;28;20844;-61
2022/01/27 07:05:20;;;;;;;29.73;13.40;;;;;;;;;;8218023;28;20030;-60
2022/01/27 07:09:21;;;;;;;27.33;12.70;;;;;;;;;;8217556;28;20285;-60
2022/01/27 07:13:21;;;;;;;24.50;11.15;;;;;;;;;;8218804;28;20121;-60
2022/01/27 07:17:22;;;;;;;29.60;13.32;;;;;;;;;;8217509;28;20041;-60
2022/01/27 07:21:22;;;;;;;28.88;13.43;;;;;;;;;;8216335;28;20034;-60
2022/01/27 07:25:22;;;;;;;23.98;11.93;;;;;;;;;;8217293;28;20479;-60
2022/01/27 07:29:23;;;;;;;24.70;12.35;;;;;;;;;;8215396;28;20027;-61
2022/01/27 07:33:23;;;;;;;28.05;11.02;;;;;;;;;;8212513;28;20134;-60
2022/01/27 07:37:23;;;;;;;18.17;9.55;;;;;;;;;;8209367;28;21180;-60
2022/01/27 07:41:23;;;;;;;20.25;10.30;;;;;;;;;;8217934;28;20667;-60
2022/01/27 07:45:23;;;;;;;23.15;10.63;;;;;;;;;;8213776;28;20038;-61
2022/01/27 07:49:24;;;;;;;23.67;10.02;;;;;;;;;;8219159;28;20331;-60
2022/01/27 07:53:24;;;;;;;21.45;10.77;;;;;;;;;;8230667;28;20485;-60
2022/01/27 07:57:24;;;;;;;20.90;9.57;;;;;;;;;;8216824;28;20531;-60
2022/01/27 08:01:25;;;;;;;21.95;10.68;;;;;;;;;;8216244;28;20038;-60
2022/01/27 08:05:25;;;;;;;20.15;10.55;;;;;;;;;;8218641;28;20134;-60
2022/01/27 08:09:25;;;;;;;20.27;10.10;;;;;;;;;;8215253;28;20037;-60
2022/01/27 08:13:26;;;;;;;22.30;9.98;;;;;;;;;;8216417;28;20338;-60
2022/01/27 08:17:26;;;;;;;17.15;9.60;;;;;;;;;;8215265;28;20153;-60
2022/01/27 08:21:26;;;;;;;17.83;9.48;;;;;;;;;;8216623;28;20109;-60
2022/01/27 08:25:26;;;;;;;30.42;14.18;;;;;;;;;;8217860;28;20028;-60
2022/01/27 08:29:36;;;;;;;18.65;10.20;;;;;;;;;;8215410;28;20575;-60
2022/01/27 08:33:39;;;;;;;21.90;9.45;;;;;;;;;;8215627;28;20303;-61
2022/01/27 08:37:39;;;;;;;18.23;9.02;;;;;;;;;;8216059;28;20110;-60
2022/01/27 08:41:39;;;;;;;21.05;9.75;;;;;;;;;;8215884;28;20177;-60
2022/01/27 08:45:42;;;;;;;16.60;9.43;;;;;;;;;;8214608;28;20054;-61
2022/01/27 08:49:44;;;;;;;16.33;8.82;;;;;;;;;;8215727;28;20113;-62
2022/01/27 08:53:44;;;;;;;17.45;9.27;;;;;;;;;;8213579;28;20035;-61
2022/01/27 08:57:45;;;;;;;18.67;8.63;;;;;;;;;;8216190;28;20487;-60
2022/01/27 09:01:45;;;;;;;21.25;10.45;;;;;;;;;;8214506;28;20038;-61
2022/01/27 09:05:46;;;;;;;18.45;9.43;;;;;;;;;;8215297;28;20029;-60
2022/01/27 09:09:46;;;;;;;17.20;8.57;;;;;;;;;;8214283;28;20281;-61
2022/01/27 09:13:46;;;;;;;15.75;8.27;;;;;;;;;;8213689;28;20092;-61
2022/01/27 09:17:46;;;;;;;17.70;9.27;;;;;;;;;;8215454;28;20122;-60
2022/01/27 09:21:47;;;;;;;14.45;8.88;;;;;;;;;;8214748;28;20289;-60
2022/01/27 09:25:49;;;;;;;17.25;8.98;;;;;;;;;;8214075;28;20112;-61
2022/01/27 09:29:50;;;;;;;15.45;8.93;;;;;;;;;;8217162;28;20034;-61
2022/01/27 09:33:50;;;;;;;18.42;9.70;;;;;;;;;;8215234;28;20050;-61
2022/01/27 09:37:50;;;;;;;20.10;9.60;;;;;;;;;;8212915;28;20840;-61
2022/01/27 09:41:53;;;;;;;20.17;9.32;;;;;;;;;;8214841;28;20026;-60
2022/01/27 09:45:54;;;;;;;21.85;11.63;;;;;;;;;;8212033;28;20042;-60
2022/01/27 09:50:06;;;;;;;25.38;12.30;;;;;;;;;;8214748;28;20030;-60
2022/01/27 09:54:07;;;;;;;22.90;12.77;;;;;;;;;;8213422;28;20034;-60
2022/01/27 09:58:07;;;;;;;25.30;12.25;;;;;;;;;;8213187;28;20378;-60
2022/01/27 10:02:08;;;;;;;20.08;10.35;;;;;;;;;;8213689;28;20125;-60
2022/01/27 10:06:12;;;;;;;21.90;11.32;;;;;;;;;;8214393;28;20652;-60
2022/01/27 10:10:14;;;;;;;23.58;11.75;;;;;;;;;;8212850;28;20026;-60
2022/01/27 10:14:24;;;;;;;18.35;10.50;;;;;;;;;;8214118;28;20496;-60
2022/01/27 10:18:25;;;;;;;17.67;9.65;;;;;;;;;;8213292;28;20546;-60
2022/01/27 10:22:25;;;;;;;26.80;10.00;;;;;;;;;;8210109;28;20506;-61
2022/01/27 10:26:31;;;;;;;15.73;8.70;;;;;;;;;;8213948;28;20499;-60
2022/01/27 10:34:51;;;;;;;20.37;10.43;;;;;;;;;;8212092;28;20362;-60
2022/01/27 10:38:53;;;;;;;16.52;9.50;;;;;;;;;;8212167;28;20587;-60
2022/01/27 10:42:59;;;;;;;20.92;10.27;;;;;;;;;;8212281;28;20026;-60
2022/01/27 10:47:05;;;;;;;19.33;10.57;;;;;;;;;;8211084;28;20125;-60
2022/01/27 10:51:15;;;;;;;17.23;9.43;;;;;;;;;;8210423;28;20034;-60
2022/01/27 10:55:17;;;;;;;19.48;9.93;;;;;;;;;;8211946;28;20031;-60
2022/01/27 10:59:18;;;;;;;18.15;10.35;;;;;;;;;;8212052;28;20108;-60
2022/01/27 11:03:19;;;;;;;19.42;9.60;;;;;;;;;;8212696;28;20034;-61
2022/01/27 11:07:24;;;;;;;17.15;8.98;;;;;;;;;;8210721;28;20072;-60
2022/01/27 11:11:26;;;;;;;21.70;10.95;;;;;;;;;;8211242;28;20026;-60
2022/01/27 11:15:26;;;;;;;19.55;10.00;;;;;;;;;;8215077;28;20035;-60
2022/01/27 11:24:24;;;;;;;20.70;9.95;;;;;;;;;;8218960;28;20104;-61
2022/01/27 11:28:00;;;;;;;18.88;10.27;;;;;;;;;;8213077;28;20564;-61
2022/01/27 11:32:35;;;;;;;22.55;11.15;;;;;;;;;;8218226;28;20049;-61
2022/01/27 11:36:37;;;;;;;21.33;10.85;;;;;;;;;;8119033;28;20058;-61
2022/01/27 11:40:37;;;;;;;18.40;10.48;;;;;;;;;;8218332;28;20431;-61
2022/01/27 11:44:39;;;;;;;23.00;11.55;;;;;;;;;;8218791;28;20022;-61
2022/01/27 11:48:39;;;;;;;21.67;11.63;;;;;;;;;;8216978;28;20568;-62
2022/01/27 11:52:52;;;;;;;19.15;10.98;;;;;;;;;;8215688;28;20594;-61
2022/01/27 11:56:54;;;;;;;24.13;12.18;;;;;;;;;;8216870;28;20066;-61
2022/01/27 12:01:06;;;;;;;23.67;12.52;;;;;;;;;;8212783;28;20404;-61
2022/01/27 12:05:13;;;;;;;22.88;13.20;;;;;;;;;;8216258;28;20124;-61
2022/01/27 12:09:22;;;;;;;21.90;12.43;;;;;;;;;;8214013;28;20026;-61
2022/01/27 12:13:38;;;;;;;22.15;12.63;;;;;;;;;;8216842;28;20154;-60
2022/01/27 12:17:40;;;;;;;21.88;12.82;;;;;;;;;;8215379;28;20035;-62
2022/01/27 12:22:00;;;;;;;23.02;11.88;;;;;;;;;;8216086;28;20121;-61
2022/01/27 12:26:01;;;;;;;23.27;12.43;;;;;;;;;;8217575;28;20049;-61
2022/01/27 12:30:01;;;;;;;23.83;11.25;;;;;;;;;;8213541;28;20141;-61
2022/01/27 12:34:01;;;;;;;22.67;11.83;;;;;;;;;;8211419;28;20039;-62
2022/01/27 12:38:02;;;;;;;24.42;12.35;;;;;;;;;;8214301;28;20273;-61
2022/01/27 12:42:04;;;;;;;24.50;13.50;;;;;;;;;;8213351;28;20030;-61
2022/01/27 12:46:06;;;;;;;24.60;11.98;;;;;;;;;;8214911;28;20057;-61
2022/01/27 12:50:12;;;;;;;23.38;12.18;;;;;;;;;;8215785;28;20097;-61
2022/01/27 12:54:14;;;;;;;25.30;13.52;;;;;;;;;;8213446;28;20386;-61
2022/01/27 12:58:17;;;;;;;23.17;11.88;;;;;;;;;;8214295;28;20141;-61
2022/01/27 13:02:18;;;;;;;22.52;12.55;;;;;;;;;;8214852;28;20034;-61
2022/01/27 13:06:27;;;;;;;25.80;12.30;;;;;;;;;;8213130;28;20125;-61
2022/01/27 13:10:27;;;;;;;22.33;12.25;;;;;;;;;;8215348;28;20061;-61
2022/01/27 13:14:28;;;;;;;21.17;12.25;;;;;;;;;;8213337;28;21044;-61
2022/01/27 13:18:36;;;;;;;21.52;11.85;;;;;;;;;;8215899;28;20035;-61
2022/01/27 13:22:45;;;;;;;22.10;12.30;;;;;;;;;;8214221;28;20489;-62
2022/01/27 13:26:46;;;;;;;25.77;11.77;;;;;;;;;;8213927;28;20038;-61
2022/01/27 13:30:50;;;;;;;26.17;12.48;;;;;;;;;;8211558;28;20490;-61
2022/01/27 13:34:50;;;;;;;31.42;15.40;;;;;;;;;;8215012;28;20455;-61
2022/01/27 13:39:02;;;;;;;24.58;12.32;;;;;;;;;;8213028;28;20026;-61
2022/01/27 13:43:02;;;;;;;21.02;11.68;;;;;;;;;;8213520;28;20207;-61
2022/01/27 13:47:04;;;;;;;23.52;12.60;;;;;;;;;;8213495;28;20341;-62
2022/01/27 13:51:04;;;;;;;27.33;12.00;;;;;;;;;;8213387;28;20104;-62
2022/01/27 13:55:09;;;;;;;23.17;12.23;;;;;;;;;;8215826;28;20107;-62
2022/01/27 13:59:18;;;;;;;25.35;12.00;;;;;;;;;;8212423;28;20805;-61
2022/01/27 14:03:18;;;;;;;22.95;12.50;;;;;;;;;;8211236;28;20049;-61
2022/01/27 14:07:29;;;;;;;20.85;11.02;;;;;;;;;;8213559;28;20539;-61
2022/01/27 14:11:37;;;;;;;24.27;11.95;;;;;;;;;;8211504;28;20062;-61
2022/01/27 14:15:39;;;;;;;23.98;12.43;;;;;;;;;;8210926;28;20034;-62
2022/01/27 14:19:39;;;;;;;25.67;12.43;;;;;;;;;;8212740;28;20620;-61
2022/01/27 14:27:46;;;;;;;22.67;12.30;;;;;;;;;;8212337;28;20031;-61
2022/01/27 14:31:50;;;;;;;21.80;11.35;;;;;;;;;;8210102;28;20047;-61
2022/01/27 14:35:50;;;;;;;20.30;12.23;;;;;;;;;;8213422;28;20030;-61
2022/01/27 14:39:50;;;;;;;21.90;11.80;;;;;;;;;;8210742;28;20790;-61
2022/01/27 14:43:50;;;;;;;21.40;10.68;;;;;;;;;;8208309;28;20281;-61
2022/01/27 14:47:52;;;;;;;19.38;10.90;;;;;;;;;;8210859;28;20416;-62
2022/01/27 14:51:52;;;;;;;19.90;10.70;;;;;;;;;;8211681;28;20387;-61
2022/01/27 14:55:52;;;;;;;19.77;11.20;;;;;;;;;;8212135;28;20057;-62
2022/01/27 14:59:52;;;;;;;20.23;9.85;;;;;;;;;;8212175;28;20038;-61
2022/01/27 15:03:53;;;;;;;17.58;9.75;;;;;;;;;;8212736;28;20038;-61
2022/01/27 15:07:53;;;;;;;17.55;9.40;;;;;;;;;;8212532;28;20174;-61
2022/01/27 15:11:53;;;;;;;18.35;10.50;;;;;;;;;;8212777;28;20049;-61
2022/01/27 15:20:12;;;;;;;22.73;11.35;;;;;;;;;;8216077;28;20041;-61
2022/01/27 15:24:12;;;;;;;17.08;10.23;;;;;;;;;;8217641;28;20022;-61
2022/01/27 15:28:13;;;;;;;20.98;11.35;;;;;;;;;;8213113;28;20039;-61
2022/01/27 15:32:16;;;;;;;21.45;11.98;;;;;;;;;;8211660;28;20588;-62
2022/01/27 15:36:17;;;;;;;17.00;9.95;;;;;;;;;;8210765;28;20103;-61
2022/01/27 15:40:19;;;;;;;18.73;9.50;;;;;;;;;;8210319;28;20019;-61
2022/01/27 15:44:19;;;;;;;14.93;9.35;;;;;;;;;;8205637;28;20154;-61
2022/01/27 15:48:19;;;;;;;15.27;9.18;;;;;;;;;;8210322;28;20038;-62
2022/01/27 15:52:19;;;;;;;13.77;8.35;;;;;;;;;;8206300;28;20022;-61
2022/01/27 15:56:21;;;;;;;15.85;8.70;;;;;;;;;;8212553;28;20376;-61
2022/01/27 16:00:21;;;;;;;16.45;8.90;;;;;;;;;;8212029;28;20254;-61
2022/01/27 16:04:22;;;;;;;15.20;8.82;;;;;;;;;;8216561;28;20033;-61
2022/01/27 16:08:22;;;;;;;18.50;9.45;;;;;;;;;;8214791;28;20685;-61
2022/01/27 16:12:22;;;;;;;14.00;8.55;;;;;;;;;;8212688;28;20046;-61
2022/01/27 16:16:24;;;;;;;12.73;7.72;;;;;;;;;;8215498;28;20522;-61
2022/01/27 16:20:25;;;;;;;13.27;7.72;;;;;;;;;;8217628;28;20058;-61
2022/01/27 16:24:25;;;;;;;15.65;8.60;;;;;;;;;;8215839;28;20034;-61
2022/01/27 16:28:25;;;;;;;14.20;9.38;;;;;;;;;;8213852;28;20022;-61
2022/01/27 16:32:27;;;;;;;14.15;8.55;;;;;;;;;;8214998;28;20471;-61
2022/01/27 16:36:27;;;;;;;14.95;8.95;;;;;;;;;;8215637;28;20021;-61
2022/01/27 16:40:28;;;;;;;17.02;8.23;;;;;;;;;;8216718;28;20570;-61
2022/01/27 16:44:28;;;;;;;13.60;8.70;;;;;;;;;;8215060;28;20092;-61
2022/01/27 16:48:29;;;;;;;13.95;8.57;;;;;;;;;;8215624;28;20536;-61
2022/01/27 16:52:29;;;;;;;17.05;8.73;;;;;;;;;;8216243;28;20026;-62
2022/01/27 16:56:30;;;;;;;15.70;10.65;;;;;;;;;;8215842;28;20022;-61
2022/01/27 17:00:30;;;;;;;22.00;10.45;;;;;;;;;;8214258;28;20030;-61
2022/01/27 17:04:31;;;;;;;18.98;10.02;;;;;;;;;;8215751;28;20058;-60
2022/01/27 17:08:31;;;;;;;17.33;10.07;;;;;;;;;;8214126;28;20490;-61
2022/01/27 17:12:31;;;;;;;16.15;8.40;;;;;;;;;;8214083;28;20054;-61
2022/01/27 17:16:31;;;;;;;15.17;8.97;;;;;;;;;;8214622;28;20498;-61
2022/01/27 17:20:31;;;;;;;11.63;7.93;;;;;;;;;;8214551;28;20741;-61
2022/01/27 17:24:33;;;;;;;14.40;9.48;;;;;;;;;;8214092;28;20030;-61
2022/01/27 17:28:33;;;;;;;15.98;9.40;;;;;;;;;;8214542;28;21375;-61
2022/01/27 17:32:33;;;;;;;15.35;10.05;;;;;;;;;;8214520;28;20050;-61
2022/01/27 17:36:34;;;;;;;17.90;9.43;;;;;;;;;;8214117;28;20030;-61
2022/01/27 17:40:35;;;;;;;14.60;9.00;;;;;;;;;;8213126;28;20278;-60
2022/01/27 17:44:45;;;;;;;12.10;8.35;;;;;;;;;;8214509;28;20289;-61
2022/01/27 17:48:45;;;;;;;14.88;8.50;;;;;;;;;;8212566;28;20041;-61
2022/01/27 17:52:46;;;;;;;17.60;8.77;;;;;;;;;;8213809;28;20534;-62
2022/01/27 17:56:46;;;;;;;11.57;7.70;;;;;;;;;;8214847;28;20085;-61
2022/01/27 18:00:46;;;;;;;11.25;7.95;;;;;;;;;;8212749;28;20049;-61
2022/01/27 18:04:46;;;;;;;15.25;7.10;;;;;;;;;;8213380;28;20073;-61
2022/01/27 18:08:47;;;;;;;9.52;6.35;;;;;;;;;;8213957;28;20058;-61
2022/01/27 18:12:47;;;;;;;9.77;6.82;;;;;;;;;;8213424;28;20068;-61
2022/01/27 18:16:53;;;;;;;9.80;6.30;;;;;;;;;;8212248;28;20466;-61
2022/01/27 18:20:54;;;;;;;8.45;5.63;;;;;;;;;;8213631;28;20446;-62
2022/01/27 18:24:54;;;;;;;6.88;4.95;;;;;;;;;;8211978;28;20554;-61
2022/01/27 18:28:54;;;;;;;6.55;4.70;;;;;;;;;;8210885;28;20576;-61
2022/01/27 18:32:54;;;;;;;6.88;5.47;;;;;;;;;;8212853;28;20038;-61
2022/01/27 18:36:55;;;;;;;5.20;4.43;;;;;;;;;;8210663;28;20158;-62
2022/01/27 18:40:55;;;;;;;4.78;3.85;;;;;;;;;;8210730;28;20018;-61
2022/01/27 18:44:55;;;;;;;5.28;3.80;;;;;;;;;;8211532;28;20389;-61
2022/01/27 18:48:57;;;;;;;6.47;4.28;;;;;;;;;;8209712;28;20251;-61
2022/01/27 18:52:57;;;;;;;4.10;3.17;;;;;;;;;;8212803;28;20034;-61
2022/01/27 18:56:58;;;;;;;4.10;3.45;;;;;;;;;;8210864;28;20112;-61
2022/01/27 19:01:01;;;;;;;4.28;3.58;;;;;;;;;;8208879;28;20956;-61
2022/01/27 19:05:01;;;;;;;4.45;3.63;;;;;;;;;;8212370;28;20026;-61
2022/01/27 19:09:02;;;;;;;3.67;3.28;;;;;;;;;;8210045;28;20030;-61
2022/01/27 19:13:02;;;;;;;4.47;3.53;;;;;;;;;;8213408;28;20426;-61
2022/01/27 19:17:03;;;;;;;4.15;3.08;;;;;;;;;;8212160;28;20279;-61
2022/01/27 19:21:03;;;;;;;4.40;3.38;;;;;;;;;;8210824;28;20388;-60
2022/01/27 19:25:05;;;;;;;3.83;3.43;;;;;;;;;;8213190;28;20038;-61
2022/01/27 19:29:05;;;;;;;3.78;3.38;;;;;;;;;;8210711;28;20368;-60
2022/01/27 19:33:05;;;;;;;6.78;4.28;;;;;;;;;;8210283;28;20820;-61
2022/01/27 19:37:06;;;;;;;4.18;3.78;;;;;;;;;;8217927;28;20018;-61
2022/01/27 19:41:06;;;;;;;5.15;4.63;;;;;;;;;;8216436;28;20697;-61
2022/01/27 19:45:07;;;;;;;5.78;4.72;;;;;;;;;;8217785;28;20030;-61
2022/01/27 19:49:07;;;;;;;6.63;5.00;;;;;;;;;;8215901;28;20053;-61
2022/01/27 19:53:08;;;;;;;6.50;5.50;;;;;;;;;;8218389;28;20026;-62
2022/01/27 19:57:09;;;;;;;4.75;4.20;;;;;;;;;;8216382;28;20312;-61
2022/01/27 20:01:09;;;;;;;6.30;5.00;;;;;;;;;;8215850;28;20598;-61
2022/01/27 20:05:10;;;;;;;6.30;4.70;;;;;;;;;;8218368;28;20033;-61
2022/01/27 20:09:10;;;;;;;7.53;5.40;;;;;;;;;;8217174;28;20085;-60
2022/01/27 20:13:10;;;;;;;7.15;5.85;;;;;;;;;;8213751;28;20069;-61
2022/01/27 20:17:10;;;;;;;8.30;5.40;;;;;;;;;;8217328;28;20042;-60
2022/01/27 20:21:12;;;;;;;6.65;5.55;;;;;;;;;;8217085;28;20364;-61
2022/01/27 20:25:14;;;;;;;8.00;5.72;;;;;;;;;;8215607;28;20036;-62
2022/01/27 20:29:14;;;;;;;8.07;5.75;;;;;;;;;;8215864;28;20026;-60
2022/01/27 20:33:15;;;;;;;7.63;5.57;;;;;;;;;;8215559;28;20042;-61
2022/01/27 20:37:15;;;;;;;8.00;6.43;;;;;;;;;;8216323;28;21016;-61
2022/01/27 20:41:15;;;;;;;7.63;5.93;;;;;;;;;;8215582;28;20048;-61
2022/01/27 20:45:15;;;;;;;9.48;6.60;;;;;;;;;;8212740;28;20278;-61
2022/01/27 20:49:16;;;;;;;11.30;8.63;;;;;;;;;;8215554;28;20522;-60
2022/01/27 20:53:18;;;;;;;11.02;7.70;;;;;;;;;;8215900;28;20049;-61
2022/01/27 20:57:19;;;;;;;8.88;7.07;;;;;;;;;;8214231;28;20037;-61
2022/01/27 21:01:19;;;;;;;10.43;7.43;;;;;;;;;;8214926;28;20372;-61
2022/01/27 21:05:20;;;;;;;9.07;7.07;;;;;;;;;;8216211;28;20034;-60
2022/01/27 21:09:21;;;;;;;8.57;6.93;;;;;;;;;;8213080;28;20033;-61
2022/01/27 21:13:25;;;;;;;8.85;7.07;;;;;;;;;;8213625;28;20932;-60
2022/01/27 21:17:25;;;;;;;8.25;6.38;;;;;;;;;;8212657;28;20099;-61
2022/01/27 21:21:26;;;;;;;9.50;7.03;;;;;;;;;;8213199;28;20336;-60
2022/01/27 21:25:26;;;;;;;9.45;7.22;;;;;;;;;;8214919;28;20080;-60
2022/01/27 21:29:27;;;;;;;8.50;6.93;;;;;;;;;;8212543;28;20474;-65
2022/01/27 21:33:33;;;;;;;10.38;6.95;;;;;;;;;;8214538;28;20285;-60
2022/01/27 21:37:33;;;;;;;9.05;6.55;;;;;;;;;;8217678;28;21344;-61
2022/01/27 21:41:33;;;;;;;8.82;6.65;;;;;;;;;;8212636;28;20026;-60
2022/01/27 21:45:33;;;;;;;9.02;6.10;;;;;;;;;;8212889;28;20262;-61
2022/01/27 21:49:36;;;;;;;8.25;6.60;;;;;;;;;;8213866;28;20906;-60
2022/01/27 21:53:37;;;;;;;7.43;5.85;;;;;;;;;;8210906;28;20022;-61
2022/01/27 21:57:38;;;;;;;9.18;7.25;;;;;;;;;;8211408;28;20663;-61
2022/01/27 22:01:39;;;;;;;9.05;6.88;;;;;;;;;;8210541;28;20314;-61
2022/01/27 22:05:39;;;;;;;8.53;6.43;;;;;;;;;;8214102;28;20035;-60
2022/01/27 22:09:39;;;;;;;8.75;7.07;;;;;;;;;;8209249;28;20273;-60
2022/01/27 22:13:39;;;;;;;10.40;7.00;;;;;;;;;;8208140;28;20057;-61
2022/01/27 22:17:39;;;;;;;9.32;7.03;;;;;;;;;;8205834;28;20030;-61
2022/01/27 22:21:40;;;;;;;9.32;7.25;;;;;;;;;;8211663;28;20101;-60
2022/01/27 22:25:40;;;;;;;11.07;7.80;;;;;;;;;;8210477;28;20035;-60
2022/01/27 22:29:40;;;;;;;9.13;7.40;;;;;;;;;;8210639;28;20031;-60
2022/01/27 22:33:43;;;;;;;12.30;6.53;;;;;;;;;;8210297;28;20162;-60
2022/01/27 22:37:43;;;;;;;9.18;5.90;;;;;;;;;;8211367;28;20030;-60
2022/01/27 22:41:44;;;;;;;8.27;5.75;;;;;;;;;;8217810;28;20018;-60
2022/01/27 22:45:44;;;;;;;9.52;6.85;;;;;;;;;;8215920;28;20941;-61
2022/01/27 22:49:44;;;;;;;9.38;6.25;;;;;;;;;;8212037;28;20057;-61
2022/01/27 22:53:45;;;;;;;9.55;7.93;;;;;;;;;;8211295;28;20121;-62
2022/01/27 22:57:45;;;;;;;11.20;8.30;;;;;;;;;;8217456;28;20030;-62
2022/01/27 23:01:45;;;;;;;16.02;9.05;;;;;;;;;;8217253;28;20099;-61
2022/01/27 23:05:45;;;;;;;11.95;8.30;;;;;;;;;;8219636;28;20037;-61
2022/01/27 23:09:45;;;;;;;15.07;9.20;;;;;;;;;;8217218;28;20057;-62
2022/01/27 23:13:48;;;;;;;13.00;9.13;;;;;;;;;;8222938;28;20030;-61
2022/01/27 23:18:06;;;;;;;11.73;8.63;;;;;;;;;;8219530;28;20035;-61
2022/01/27 23:26:18;;;;;;;12.68;9.70;;;;;;;;;;8220694;28;20034;-61
2022/01/27 23:30:36;;;;;;;15.07;8.20;;;;;;;;;;8218972;28;20212;-61
2022/01/27 23:34:36;;;;;;;14.30;8.75;;;;;;;;;;8220458;28;20141;-63
2022/01/27 23:38:46;;;;;;;14.48;8.20;;;;;;;;;;8218738;28;20621;-61
2022/01/27 23:51:42;;;;;;;12.65;7.82;;;;;;;;;;8223541;28;20053;-62
2022/01/27 23:55:53;;;;;;;12.63;7.93;;;;;;;;;;8223034;28;20031;-63
